createdAt,value
2022-10-19T00:00:43.072Z,10.69
2022-10-19T00:06:51.541Z,10.67
2022-10-19T00:09:53.878Z,10.71
2022-10-19T00:12:56.032Z,10.61
2022-10-19T00:15:58.351Z,10.62
2022-10-19T00:19:02.266Z,10.69
2022-10-19T00:22:05.182Z,10.61
2022-10-19T00:25:08.341Z,10.53
2022-10-19T00:28:10.711Z,10.44
2022-10-19T00:31:16.286Z,10.48
2022-10-19T00:34:18.662Z,10.50
2022-10-19T00:37:20.733Z,10.48
2022-10-19T00:40:23.080Z,10.42
2022-10-19T00:43:27.986Z,10.44
2022-10-19T00:46:33.968Z,10.48
2022-10-19T00:49:42.689Z,10.44
2022-10-19T00:52:45.152Z,10.39
2022-10-19T00:55:47.551Z,10.47
2022-10-19T00:58:50.206Z,10.54
2022-10-19T01:01:53.366Z,10.65
2022-10-19T01:04:56.069Z,10.76
2022-10-19T01:07:58.347Z,10.86
2022-10-19T01:11:27.006Z,10.95
2022-10-19T01:14:35.275Z,11.08
2022-10-19T01:17:57.997Z,11.15
2022-10-19T01:21:02.781Z,11.18
2022-10-19T01:24:23.495Z,11.19
2022-10-19T01:28:00.313Z,11.11
2022-10-19T01:31:27.087Z,11.18
2022-10-19T01:34:51.338Z,11.19
2022-10-19T01:38:24.667Z,11.20
2022-10-19T01:41:41.326Z,11.21
2022-10-19T01:44:53.157Z,11.21
2022-10-19T01:48:12.000Z,11.24
2022-10-19T01:51:19.454Z,11.21
2022-10-19T01:54:24.102Z,11.18
2022-10-19T01:57:36.895Z,11.22
2022-10-19T02:00:42.661Z,11.20
2022-10-19T02:03:45.740Z,11.22
2022-10-19T02:06:50.767Z,11.18
2022-10-19T02:09:52.892Z,11.15
2022-10-19T02:12:56.758Z,11.18
2022-10-19T02:16:03.379Z,11.18
2022-10-19T02:19:08.678Z,11.13
2022-10-19T02:22:12.371Z,11.17
2022-10-19T02:25:15.587Z,11.16
2022-10-19T02:28:18.157Z,11.10
2022-10-19T02:31:21.145Z,11.08
2022-10-19T02:34:23.365Z,11.11
2022-10-19T02:37:25.931Z,11.25
2022-10-19T02:40:32.442Z,11.29
2022-10-19T02:43:38.184Z,11.26
2022-10-19T02:46:55.178Z,11.26
2022-10-19T02:49:57.545Z,11.34
2022-10-19T02:53:00.022Z,11.26
2022-10-19T02:56:02.368Z,11.39
2022-10-19T02:59:04.702Z,11.45
2022-10-19T03:02:07.559Z,11.44
2022-10-19T03:05:09.956Z,11.47
2022-10-19T03:08:12.309Z,11.41
2022-10-19T03:11:14.423Z,11.38
2022-10-19T03:14:16.759Z,11.39
2022-10-19T03:17:18.865Z,11.47
2022-10-19T03:20:21.250Z,11.51
2022-10-19T03:23:23.308Z,11.58
2022-10-19T03:26:25.631Z,11.63
2022-10-19T03:29:27.728Z,11.65
2022-10-19T03:32:30.085Z,11.61
2022-10-19T03:35:32.181Z,11.55
2022-10-19T03:38:34.502Z,11.58
2022-10-19T03:41:37.484Z,11.58
2022-10-19T03:44:39.819Z,11.55
2022-10-19T03:47:41.922Z,11.52
2022-10-19T03:50:44.271Z,11.50
2022-10-19T03:53:46.965Z,11.55
2022-10-19T03:56:49.309Z,11.55
2022-10-19T03:59:51.373Z,11.58
2022-10-19T04:02:53.706Z,11.58
2022-10-19T04:06:05.603Z,11.63
2022-10-19T04:09:09.029Z,11.67
2022-10-19T04:12:11.468Z,11.70
2022-10-19T04:15:13.582Z,11.66
2022-10-19T04:18:15.930Z,11.68
2022-10-19T04:21:27.193Z,11.75
2022-10-19T04:24:29.728Z,11.79
2022-10-19T04:27:32.125Z,11.79
2022-10-19T04:30:34.791Z,11.81
2022-10-19T04:33:36.967Z,11.86
2022-10-19T04:36:39.350Z,11.89
2022-10-19T04:39:43.248Z,11.91
2022-10-19T04:42:45.622Z,11.85
2022-10-19T04:45:47.920Z,11.88
2022-10-19T04:48:50.811Z,11.84
2022-10-19T04:51:53.036Z,11.86
2022-10-19T04:54:55.382Z,11.90
2022-10-19T04:57:57.438Z,11.84
2022-10-19T05:00:59.842Z,11.86
2022-10-19T05:04:03.087Z,11.84
2022-10-19T05:07:05.417Z,11.88
2022-10-19T05:10:09.112Z,11.85
2022-10-19T05:13:11.503Z,11.87
2022-10-19T05:16:16.679Z,11.82
2022-10-19T05:19:19.021Z,11.82
2022-10-19T05:22:21.114Z,11.80
2022-10-19T05:25:23.468Z,11.72
2022-10-19T05:28:25.695Z,11.69
2022-10-19T05:31:31.109Z,11.66
2022-10-19T05:34:33.406Z,11.68
2022-10-19T05:37:36.074Z,11.61
2022-10-19T05:40:38.510Z,11.56
2022-10-19T05:43:41.916Z,11.53
2022-10-19T05:46:44.803Z,11.50
2022-10-19T05:49:47.765Z,11.50
2022-10-19T05:52:49.964Z,11.53
2022-10-19T05:55:52.478Z,11.74
2022-10-19T05:58:56.672Z,12.00
2022-10-19T06:01:59.155Z,12.24
2022-10-19T06:05:01.661Z,12.43
2022-10-19T06:08:03.908Z,12.65
2022-10-19T06:11:13.203Z,12.87
2022-10-19T06:14:16.634Z,13.04
2022-10-19T06:17:19.114Z,13.27
2022-10-19T06:20:21.279Z,13.44
2022-10-19T06:23:23.613Z,13.52
2022-10-19T06:26:26.807Z,13.64
2022-10-19T06:29:29.257Z,13.72
2022-10-19T06:32:32.336Z,13.89
2022-10-19T06:35:35.377Z,13.88
2022-10-19T06:38:37.799Z,13.96
2022-10-19T06:41:40.125Z,13.99
2022-10-19T06:44:43.933Z,14.03
2022-10-19T06:51:06.429Z,14.19
2022-10-19T06:54:09.059Z,14.27
2022-10-19T06:57:11.138Z,14.46
2022-10-19T07:00:14.099Z,14.58
2022-10-19T07:03:16.177Z,14.63
2022-10-19T07:06:19.072Z,14.68
2022-10-19T07:09:22.384Z,14.71
2022-10-19T07:12:24.707Z,14.70
2022-10-19T07:15:26.770Z,14.79
2022-10-19T07:18:29.181Z,14.75
2022-10-19T07:21:31.297Z,14.86
2022-10-19T07:24:33.640Z,14.84
2022-10-19T07:27:37.805Z,14.86
2022-10-19T07:30:40.347Z,14.88
2022-10-19T07:33:42.436Z,14.90
2022-10-19T07:36:47.984Z,14.93
2022-10-19T07:39:50.092Z,15.08
2022-10-19T07:42:52.424Z,15.06
2022-10-19T07:46:02.027Z,15.05
2022-10-19T07:49:10.798Z,15.11
2022-10-19T07:52:12.881Z,15.08
2022-10-19T07:55:15.437Z,15.16
2022-10-19T07:58:17.616Z,15.22
2022-10-19T08:01:22.541Z,15.19
2022-10-19T08:04:56.034Z,15.26
2022-10-19T08:07:47.012Z,15.30
2022-10-19T08:10:49.416Z,15.34
2022-10-19T08:13:52.194Z,15.42
2022-10-19T08:16:54.512Z,15.55
2022-10-19T08:19:56.594Z,15.69
2022-10-19T08:22:59.210Z,15.90
2022-10-19T08:26:01.351Z,16.08
2022-10-19T08:29:06.809Z,16.18
2022-10-19T08:32:08.966Z,16.45
2022-10-19T08:35:11.566Z,16.68
2022-10-19T08:38:13.756Z,16.94
2022-10-19T08:45:28.349Z,17.56
2022-10-19T08:48:33.783Z,17.91
2022-10-19T08:51:41.773Z,18.34
2022-10-19T08:54:51.903Z,18.63
2022-10-19T08:58:27.580Z,18.81
2022-10-19T09:01:40.983Z,19.23
2022-10-19T09:04:49.400Z,19.31
2022-10-19T09:07:53.885Z,19.43
2022-10-19T09:10:57.290Z,19.37
2022-10-19T09:14:40.096Z,19.37
2022-10-19T09:17:42.212Z,19.41
2022-10-19T09:20:47.995Z,19.28
2022-10-19T09:24:26.961Z,19.13
2022-10-19T09:27:35.444Z,19.18
2022-10-19T09:30:40.426Z,19.27
2022-10-19T09:33:47.224Z,19.33
2022-10-19T09:36:56.057Z,19.23
2022-10-19T09:39:58.378Z,19.23
2022-10-19T09:43:08.743Z,19.15
2022-10-19T09:46:20.691Z,19.17
2022-10-19T09:49:40.648Z,18.93
2022-10-19T09:52:45.852Z,19.06
2022-10-19T09:55:56.612Z,18.93
2022-10-19T09:58:59.023Z,18.93
2022-10-19T10:02:19.228Z,18.97
2022-10-19T10:05:37.638Z,18.97
2022-10-19T10:08:57.869Z,19.02
2022-10-19T10:12:00.444Z,19.12
2022-10-19T10:15:05.984Z,19.08
2022-10-19T10:18:16.342Z,19.13
2022-10-19T10:21:26.474Z,19.23
2022-10-19T10:24:31.054Z,19.29
2022-10-19T10:27:36.678Z,19.00
2022-10-19T10:30:39.438Z,18.85
2022-10-19T10:33:45.880Z,18.63
2022-10-19T10:36:51.287Z,18.55
2022-10-19T10:39:57.687Z,18.46
2022-10-19T10:43:08.682Z,18.37
2022-10-19T10:46:19.660Z,18.53
2022-10-19T10:49:28.917Z,18.58
2022-10-19T10:52:31.733Z,18.69
2022-10-19T10:55:34.437Z,18.96
2022-10-19T10:58:47.889Z,19.05
2022-10-19T11:02:09.610Z,19.11
2022-10-19T11:05:14.575Z,19.22
2022-10-19T11:08:38.514Z,19.23
2022-10-19T11:11:45.077Z,19.33
2022-10-19T11:14:59.331Z,19.34
2022-10-19T11:18:07.854Z,19.40
2022-10-19T11:21:12.912Z,19.43
2022-10-19T11:24:41.881Z,19.52
2022-10-19T11:28:04.810Z,19.54
2022-10-19T11:31:14.007Z,19.45
2022-10-19T11:34:57.978Z,19.52
2022-10-19T11:38:25.131Z,19.48
2022-10-19T11:41:50.410Z,19.42
2022-10-19T11:45:10.954Z,19.37
2022-10-19T11:48:41.676Z,19.30
2022-10-19T11:51:57.558Z,19.35
2022-10-19T11:55:02.636Z,19.34
2022-10-19T11:58:34.499Z,19.31
2022-10-19T12:01:58.615Z,19.36
2022-10-19T12:05:27.921Z,19.36
2022-10-19T12:08:30.091Z,19.34
2022-10-19T12:11:42.016Z,19.39
2022-10-19T12:14:48.830Z,19.27
2022-10-19T12:17:56.126Z,19.17
2022-10-19T12:21:02.679Z,19.18
2022-10-19T12:24:14.420Z,19.01
2022-10-19T12:27:18.520Z,18.88
2022-10-19T12:30:23.484Z,18.96
2022-10-19T12:33:46.749Z,18.98
2022-10-19T12:36:54.925Z,19.02
2022-10-19T12:40:15.343Z,19.03
2022-10-19T12:43:23.957Z,18.99
2022-10-19T12:46:42.890Z,19.00
2022-10-19T12:49:49.931Z,18.99
2022-10-19T12:52:54.453Z,18.90
2022-10-19T12:56:13.675Z,18.93
2022-10-19T12:59:26.125Z,18.97
2022-10-19T13:05:41.553Z,19.01
2022-10-19T13:08:53.019Z,19.10
2022-10-19T13:12:25.794Z,19.17
2022-10-19T13:15:50.218Z,19.16
2022-10-19T13:19:01.539Z,19.12
2022-10-19T13:22:26.949Z,19.75
2022-10-19T13:25:32.738Z,20.59
2022-10-19T13:28:37.741Z,20.27
2022-10-19T13:31:39.896Z,19.66
2022-10-19T13:34:42.221Z,19.35
2022-10-19T13:37:44.694Z,19.02
2022-10-19T13:40:50.066Z,18.99
2022-10-19T13:44:16.935Z,18.82
2022-10-19T13:47:19.181Z,18.79
2022-10-19T13:50:43.666Z,18.79
2022-10-19T13:54:19.146Z,18.73
2022-10-19T13:57:59.142Z,18.58
2022-10-19T14:01:18.501Z,18.51
2022-10-19T14:04:33.335Z,18.40
2022-10-19T14:08:14.384Z,18.47
2022-10-19T14:11:32.138Z,18.42
2022-10-19T14:14:44.333Z,18.36
2022-10-19T14:17:46.772Z,18.22
2022-10-19T14:21:05.798Z,18.37
2022-10-19T14:24:34.257Z,18.39
2022-10-19T14:27:36.962Z,18.17
2022-10-19T14:30:44.312Z,18.13
2022-10-19T14:33:50.541Z,18.05
2022-10-19T14:36:52.933Z,17.92
2022-10-19T14:40:16.476Z,17.90
2022-10-19T14:43:24.292Z,17.84
2022-10-19T14:46:30.963Z,17.74
2022-10-19T14:49:33.363Z,17.72
2022-10-19T14:52:39.508Z,17.59
2022-10-19T14:55:42.626Z,17.50
2022-10-19T14:58:56.300Z,17.48
2022-10-19T15:02:02.483Z,17.44
2022-10-19T15:05:06.577Z,17.35
2022-10-19T15:08:17.101Z,17.27
2022-10-19T15:11:37.870Z,17.19
2022-10-19T15:14:40.562Z,17.14
2022-10-19T15:17:54.380Z,17.07
2022-10-19T15:21:14.042Z,16.96
2022-10-19T15:24:28.158Z,16.83
2022-10-19T15:27:36.012Z,16.74
2022-10-19T15:30:38.163Z,16.74
2022-10-19T15:33:45.059Z,16.55
2022-10-19T15:37:01.285Z,16.48
2022-10-19T15:40:22.439Z,16.33
2022-10-19T15:43:30.486Z,16.34
2022-10-19T15:47:12.349Z,16.11
2022-10-19T15:50:31.986Z,15.98
2022-10-19T15:53:34.330Z,15.83
2022-10-19T15:56:39.015Z,15.82
2022-10-19T15:59:41.360Z,15.70
2022-10-19T16:02:43.717Z,15.67
2022-10-19T16:05:47.124Z,15.61
2022-10-19T16:08:51.209Z,15.59
2022-10-19T16:11:56.957Z,15.58
2022-10-19T16:14:59.068Z,15.53
2022-10-19T16:18:01.487Z,15.42
2022-10-19T16:21:03.874Z,15.42
2022-10-19T16:24:06.384Z,15.42
2022-10-19T16:27:09.332Z,15.43
2022-10-19T16:30:12.784Z,15.39
2022-10-19T16:33:14.853Z,15.32
2022-10-19T16:36:20.170Z,15.17
2022-10-19T16:39:25.348Z,15.13
2022-10-19T16:42:30.438Z,15.13
2022-10-19T16:45:32.871Z,15.03
2022-10-19T16:48:35.400Z,15.00
2022-10-19T16:51:38.241Z,15.01
2022-10-19T16:54:40.653Z,14.89
2022-10-19T16:57:42.712Z,14.83
2022-10-19T17:00:45.027Z,14.83
2022-10-19T17:03:48.638Z,14.84
2022-10-19T17:06:50.991Z,14.82
2022-10-19T17:09:54.823Z,14.74
2022-10-19T17:12:57.447Z,14.71
2022-10-19T17:16:03.048Z,14.63
2022-10-19T17:19:07.671Z,14.63
2022-10-19T17:22:09.724Z,14.49
2022-10-19T17:25:12.078Z,14.44
2022-10-19T17:28:14.264Z,14.40
2022-10-19T17:31:16.601Z,14.32
2022-10-19T17:34:19.179Z,14.31
2022-10-19T17:37:21.525Z,14.33
2022-10-19T17:40:23.590Z,14.33
2022-10-19T17:43:25.918Z,14.28
2022-10-19T17:46:30.941Z,14.24
2022-10-19T17:49:33.272Z,14.21
2022-10-19T17:52:35.348Z,14.11
2022-10-19T17:55:37.669Z,14.18
2022-10-19T17:58:40.196Z,14.12
2022-10-19T18:01:42.706Z,14.13
2022-10-19T18:04:45.023Z,14.09
2022-10-19T18:07:49.119Z,14.00
2022-10-19T18:11:00.259Z,13.92
2022-10-19T18:14:02.505Z,13.86
2022-10-19T18:17:05.077Z,13.87
2022-10-19T18:20:07.815Z,13.76
2022-10-19T18:23:10.183Z,13.80
2022-10-19T18:26:19.793Z,13.77
2022-10-19T18:29:25.227Z,13.61
2022-10-19T18:32:27.311Z,13.57
2022-10-19T18:35:29.916Z,13.47
2022-10-19T18:38:32.201Z,13.41
2022-10-19T18:41:34.783Z,13.38
2022-10-19T18:44:36.844Z,13.35
2022-10-19T18:47:39.168Z,13.30
2022-10-19T18:50:41.318Z,13.16
2022-10-19T18:53:45.081Z,13.04
2022-10-19T18:56:47.236Z,12.98
2022-10-19T18:59:49.542Z,13.02
2022-10-19T19:02:55.360Z,12.91
2022-10-19T19:06:01.896Z,12.88
2022-10-19T19:09:07.756Z,12.89
2022-10-19T19:12:10.107Z,12.82
2022-10-19T19:15:12.320Z,12.70
2022-10-19T19:18:14.690Z,12.70
2022-10-19T19:21:23.106Z,12.60
2022-10-19T19:24:31.347Z,12.51
2022-10-19T19:27:33.541Z,12.53
2022-10-19T19:30:44.024Z,12.48
2022-10-19T19:33:47.371Z,12.56
2022-10-19T19:36:49.826Z,12.52
2022-10-19T19:39:51.913Z,12.40
2022-10-19T19:42:54.218Z,12.33
2022-10-19T19:46:04.556Z,12.34
2022-10-19T19:49:10.663Z,12.32
2022-10-19T19:52:13.082Z,12.28
2022-10-19T19:55:15.418Z,12.16
2022-10-19T19:58:18.807Z,11.99
2022-10-19T20:01:21.753Z,12.00
2022-10-19T20:04:24.176Z,12.04
2022-10-19T20:07:26.986Z,11.97
2022-10-19T20:10:29.321Z,11.96
2022-10-19T20:13:31.688Z,11.93
2022-10-19T20:16:34.284Z,11.87
2022-10-19T20:19:36.552Z,11.78
2022-10-19T20:22:39.103Z,11.83
2022-10-19T20:25:41.181Z,11.81
2022-10-19T20:28:44.220Z,11.69
2022-10-19T20:31:46.310Z,11.65
2022-10-19T20:34:48.624Z,11.57
2022-10-19T20:37:50.904Z,11.57
2022-10-19T20:40:54.519Z,11.58
2022-10-19T20:43:56.678Z,11.58
2022-10-19T20:46:59.097Z,11.54
2022-10-19T20:50:01.224Z,11.46
2022-10-19T20:53:03.583Z,11.37
2022-10-19T20:56:10.642Z,11.24
2022-10-19T20:59:17.577Z,11.13
2022-10-19T21:02:19.637Z,11.04
2022-10-19T21:05:22.462Z,10.80
2022-10-19T21:08:24.639Z,10.75
2022-10-19T21:11:29.278Z,10.73
2022-10-19T21:14:31.493Z,10.57
2022-10-19T21:17:33.867Z,10.33
2022-10-19T21:20:37.015Z,10.37
2022-10-19T21:23:39.496Z,10.33
2022-10-19T21:26:41.705Z,10.34
2022-10-19T21:29:44.088Z,10.24
2022-10-19T21:32:47.947Z,10.19
2022-10-19T21:38:57.526Z,10.04
2022-10-19T21:41:59.862Z,9.93
2022-10-19T21:45:18.253Z,9.89
2022-10-19T21:48:24.576Z,9.76
2022-10-19T21:51:43.182Z,9.81
2022-10-19T21:54:45.511Z,9.70
2022-10-19T21:57:47.623Z,9.70
2022-10-19T22:00:49.949Z,9.73
2022-10-19T22:04:00.255Z,9.67
2022-10-19T22:07:02.284Z,9.56
2022-10-19T22:10:05.051Z,9.49
2022-10-19T22:13:07.128Z,9.47
2022-10-19T22:16:13.183Z,9.28
2022-10-19T22:19:15.233Z,9.29
2022-10-19T22:22:17.579Z,9.25
2022-10-19T22:25:19.731Z,9.12
2022-10-19T22:28:22.052Z,9.01
2022-10-19T22:31:25.990Z,9.06
2022-10-19T22:34:28.342Z,8.95
2022-10-19T22:37:30.452Z,8.97
2022-10-19T22:40:32.817Z,8.87
2022-10-19T22:43:34.928Z,8.89
2022-10-19T22:46:37.316Z,8.83
2022-10-19T22:49:39.433Z,8.79
2022-10-19T22:52:41.813Z,8.69
2022-10-19T22:55:43.986Z,8.65
2022-10-19T22:58:46.408Z,8.60
2022-10-19T23:01:48.647Z,8.59
2022-10-19T23:04:51.087Z,8.63
2022-10-19T23:07:53.176Z,8.63
2022-10-19T23:10:55.790Z,8.53
2022-10-19T23:13:58.019Z,8.59
2022-10-19T23:17:00.420Z,8.49
2022-10-19T23:20:02.576Z,8.50
2022-10-19T23:23:05.230Z,8.49
2022-10-19T23:26:09.060Z,8.46
2022-10-19T23:29:11.439Z,8.40
2022-10-19T23:32:13.554Z,8.43
2022-10-19T23:35:16.017Z,8.39
2022-10-19T23:38:18.231Z,8.36
2022-10-19T23:41:21.356Z,8.30
2022-10-19T23:44:23.450Z,8.30
2022-10-19T23:47:25.875Z,8.27
2022-10-19T23:50:27.997Z,8.26
2022-10-19T23:53:36.963Z,8.21
2022-10-19T23:56:42.101Z,8.14
2022-10-19T23:59:44.443Z,8.10
